LROP/OTP METAR and TAF weather

Enter ICAO airport designator
Station Type Date Time Source
LROP METAR 2023/02/06 20:00 UTC NOAA

LROP 062000Z 36006KT CAVOK M00/M07 Q1033 NOSIG


Station Type Date Time Source
LROP Decoded METAR 2023/02/06 20:00 UTC NOAA

Bucuresti Otopeni, Romania (LROP) 44-33N 026-06E 95M
Feb 06, 2023 - 03:00 PM EST / 2023.02.06 2000 UTC
Wind: from the N (360 degrees) at 7 MPH (6 KT):0
Visibility: greater than 7 mile(s):0
Temperature: 32 F (0 C)
Windchill: 24 F (-4 C):1
Dew Point: 19 F (-7 C)
Relative Humidity: 59%
Pressure (altimeter): 30.50 in. Hg (1033 hPa)
ob: LROP 062000Z 36006KT CAVOK M00/M07 Q1033 NOSIG
cycle: 20

Station Type Date Time Source
LROP TAF 2023/02/06 18:42 UTC NOAA

TAF LROP 061700Z 0618/0718 VRB04KT 9999 BKN035
TEMPO 0618/0620 5000 -SN BR PROB40
TEMPO 0715/0718 5000 -SN BR

Example: see airport list